Destinations Gibraltar Airport

Gibraltar Airport (LXGB / GIB)

Flights to Gibraltar Airport

Flight number From ETE Dispatch
SPY-2224 EGFF Cardiff International Airport 02:50

Flights from Gibraltar Airport

Flight number To ETE Dispatch
SPY-2225 EGFF Cardiff International Airport 02:50
About

Gibraltar Airport facts

Gibraltar Airport is located in Gibraltar at an elevation of 4.6 meters or 15 feet.

Currently, Speedy Airlines serves 2 flights to and from Gibraltar Airport.

Detailed airport info

Route map

Weather

Current weather

METAR

METAR

Metar data retrieved Sunday, 21 July 2024 at 19:55 UTC

LXGB 211920Z 25013KT CAVOK 27/17 Q1012 NOSIG
Wind Temperature
13 kt 27c